Time;durP1;ratioP1;P1;durP2;ratioP2;P2;SDS_P1;SDS_P2;PMS_P1;PMS_P2;Temp;Humidity;BMP_temperature;BMP_pressure;BME280_temperature;BME280_humidity;BME280_pressure;Samples;Min_cycle;Max_cycle;Signal;HPM_P1;HPM_P2
2024/02/01 00:01:38;;;;;;;;;;;;;;;2.17;100.00;101358.89;108339;1250;72150;-72
2024/02/01 00:04:05;;;;;;;;;;;;;;;2.15;100.00;101355.40;108376;1251;71767;-72
2024/02/01 00:06:34;;;;;;;;;;;;;;;2.11;100.00;101353.35;108339;1250;60422;-72
2024/02/01 00:09:02;;;;;;;;;;;;;;;2.09;100.00;101349.96;108351;1250;60303;-72
2024/02/01 00:11:30;;;;;;;;;;;;;;;2.07;100.00;101351.20;108357;1250;73784;-72
2024/02/01 00:13:58;;;;;;;;;;;;;;;2.06;100.00;101346.60;108343;1251;71423;-71
2024/02/01 00:16:27;;;;;;;;;;;;;;;2.04;100.00;101342.96;108300;1251;72736;-71
2024/02/01 00:18:55;;;;;;;;;;;;;;;2.01;100.00;101343.55;108348;1250;61112;-72
2024/02/01 00:21:23;;;;;;;;;;;;;;;1.97;100.00;101348.89;108366;1251;60435;-71
2024/02/01 00:23:51;;;;;;;;;;;;;;;1.95;100.00;101345.46;108240;1251;74744;-71
2024/02/01 00:26:20;;;;;;;;;;;;;;;1.92;100.00;101341.80;108122;1251;75033;-71
2024/02/01 00:28:48;;;;;;;;;;;;;;;1.90;100.00;101346.11;108284;1250;74921;-72
2024/02/01 00:31:15;;;;;;;;;;;;;;;1.89;100.00;101343.02;108300;1252;60848;-71
2024/02/01 00:33:43;;;;;;;;;;;;;;;1.91;100.00;101341.75;108358;1250;60255;-72
2024/02/01 00:36:12;;;;;;;;;;;;;;;1.92;100.00;101335.13;108339;1251;72583;-71
2024/02/01 00:38:39;;;;;;;;;;;;;;;1.95;100.00;101334.04;108336;1251;72558;-71
2024/02/01 00:41:07;;;;;;;;;;;;;;;1.98;100.00;101332.79;108787;1250;72752;-72
2024/02/01 00:43:35;;;;;;;;;;;;;;;2.02;100.00;101331.59;108300;1252;62158;-71
2024/02/01 00:46:05;;;;;;;;;;;;;;;2.08;100.00;101327.77;108345;1250;60355;-71
2024/02/01 00:48:37;;;;;;;;;;;;;;;2.14;100.00;101332.02;108393;1250;72549;-72
2024/02/01 00:51:05;;;;;;;;;;;;;;;2.19;100.00;101329.83;108429;1250;72702;-71
2024/02/01 00:53:33;;;;;;;;;;;;;;;2.22;100.00;101329.98;108386;1253;71440;-72
2024/02/01 00:56:01;;;;;;;;;;;;;;;2.27;100.00;101321.16;108444;1250;61078;-72
2024/02/01 00:58:29;;;;;;;;;;;;;;;2.31;100.00;101320.91;108434;1250;60183;-71
2024/02/01 01:00:57;;;;;;;;;;;;;;;2.36;100.00;101321.98;108381;1251;73810;-73
2024/02/01 01:03:25;;;;;;;;;;;;;;;2.40;100.00;101318.38;108371;1250;72446;-72
2024/02/01 01:05:53;;;;;;;;;;;;;;;2.43;100.00;101314.23;108407;1250;72398;-71
2024/02/01 01:08:22;;;;;;;;;;;;;;;2.48;100.00;101310.39;108342;1250;60325;-71
2024/02/01 01:10:50;;;;;;;;;;;;;;;2.52;100.00;101307.32;108279;1251;60413;-71
2024/02/01 01:13:18;;;;;;;;;;;;;;;2.57;100.00;101300.08;108416;1250;73904;-71
2024/02/01 01:15:46;;;;;;;;;;;;;;;2.60;100.00;101296.70;108428;1251;72859;-71
2024/02/01 01:18:14;;;;;;;;;;;;;;;2.63;100.00;101295.15;108323;1250;72737;-73
2024/02/01 01:20:42;;;;;;;;;;;;;;;2.65;100.00;101290.78;108365;1251;60498;-70
2024/02/01 01:23:09;;;;;;;;;;;;;;;2.65;100.00;101284.77;108413;1250;60498;-70
2024/02/01 01:25:37;;;;;;;;;;;;;;;2.65;100.00;101276.91;108321;1251;72522;-72
2024/02/01 01:28:05;;;;;;;;;;;;;;;2.64;100.00;101277.34;108407;1250;71455;-72
2024/02/01 01:30:32;;;;;;;;;;;;;;;2.59;100.00;101277.54;108301;1252;71062;-72
2024/02/01 01:33:00;;;;;;;;;;;;;;;2.50;100.00;101269.13;108308;1253;60304;-72
2024/02/01 01:35:28;;;;;;;;;;;;;;;2.41;100.00;101267.80;108345;1250;60408;-72
2024/02/01 01:37:56;;;;;;;;;;;;;;;2.32;100.00;101266.89;108381;1250;73915;-72
2024/02/01 01:40:24;;;;;;;;;;;;;;;2.25;100.00;101264.81;108356;1250;71893;-72
2024/02/01 01:42:51;;;;;;;;;;;;;;;2.19;100.00;101260.41;108350;1251;72717;-72
2024/02/01 01:45:21;;;;;;;;;;;;;;;2.14;100.00;101258.39;108347;1256;60335;-72
2024/02/01 01:47:48;;;;;;;;;;;;;;;2.09;100.00;101252.82;108434;1250;60828;-71
2024/02/01 01:50:17;;;;;;;;;;;;;;;2.05;100.00;101247.99;108321;1251;73918;-72
2024/02/01 01:52:44;;;;;;;;;;;;;;;2.02;100.00;101239.90;108394;1250;74893;-72
2024/02/01 01:55:12;;;;;;;;;;;;;;;2.01;100.00;101246.16;108402;1250;71404;-72
2024/02/01 01:57:40;;;;;;;;;;;;;;;2.01;100.00;101240.98;108342;1251;60418;-72
2024/02/01 02:00:08;;;;;;;;;;;;;;;2.01;100.00;101236.95;108388;1250;59601;-72
2024/02/01 02:02:37;;;;;;;;;;;;;;;2.02;100.00;101231.66;108358;1250;73893;-72
2024/02/01 02:05:06;;;;;;;;;;;;;;;2.04;100.00;101230.42;108310;1250;71571;-72
2024/02/01 02:07:34;;;;;;;;;;;;;;;2.08;100.00;101231.13;108312;1254;71411;-72
2024/02/01 02:10:03;;;;;;;;;;;;;;;2.13;100.00;101227.57;108324;1250;59945;-72
2024/02/01 02:12:31;;;;;;;;;;;;;;;2.19;100.00;101224.73;108452;1250;60274;-73
2024/02/01 02:14:59;;;;;;;;;;;;;;;2.24;100.00;101219.59;108311;1250;73875;-72
2024/02/01 02:17:27;;;;;;;;;;;;;;;2.29;100.00;101217.02;108211;1251;72702;-72
2024/02/01 02:19:55;;;;;;;;;;;;;;;2.33;100.00;101216.09;108256;1251;72474;-72
2024/02/01 02:22:24;;;;;;;;;;;;;;;2.38;100.00;101218.24;108216;1253;60383;-72
2024/02/01 02:24:53;;;;;;;;;;;;;;;2.39;100.00;101212.98;108319;1251;60380;-73
2024/02/01 02:27:21;;;;;;;;;;;;;;;2.39;100.00;101212.09;108324;1250;73783;-73
2024/02/01 02:29:49;;;;;;;;;;;;;;;2.37;100.00;101211.83;108322;1250;72909;-73
2024/02/01 02:32:16;;;;;;;;;;;;;;;2.21;100.00;101212.70;108375;1250;71371;-73
2024/02/01 02:34:44;;;;;;;;;;;;;;;2.10;100.00;101212.95;108226;1250;60303;-71
2024/02/01 02:37:12;;;;;;;;;;;;;;;2.04;100.00;101207.56;108350;1250;60287;-73
2024/02/01 02:39:41;;;;;;;;;;;;;;;1.98;100.00;101207.20;108255;1250;71839;-74
2024/02/01 02:42:08;;;;;;;;;;;;;;;1.94;100.00;101203.67;108332;1250;71556;-72
2024/02/01 02:44:37;;;;;;;;;;;;;;;1.90;100.00;101200.34;108296;1250;71403;-72
2024/02/01 02:47:05;;;;;;;;;;;;;;;1.84;100.00;101194.55;108309;1253;60865;-72
2024/02/01 02:49:34;;;;;;;;;;;;;;;1.79;100.00;101188.65;108348;1250;60395;-72
2024/02/01 02:52:02;;;;;;;;;;;;;;;1.76;100.00;101181.27;108333;1250;73848;-71
2024/02/01 02:54:30;;;;;;;;;;;;;;;1.72;100.00;101174.70;108438;1250;72026;-71
2024/02/01 02:56:58;;;;;;;;;;;;;;;1.69;100.00;101172.98;108376;1250;72789;-71
2024/02/01 02:59:26;;;;;;;;;;;;;;;1.65;100.00;101174.13;108353;1250;60194;-71
2024/02/01 03:01:54;;;;;;;;;;;;;;;1.60;100.00;101171.40;108345;1250;60292;-72
2024/02/01 03:04:22;;;;;;;;;;;;;;;1.55;100.00;101170.02;108345;1250;72632;-72
2024/02/01 03:06:52;;;;;;;;;;;;;;;1.50;100.00;101163.28;108385;1251;72783;-71
2024/02/01 03:09:20;;;;;;;;;;;;;;;1.46;100.00;101163.27;108377;1250;71410;-71
2024/02/01 03:11:49;;;;;;;;;;;;;;;1.41;100.00;101159.80;108345;1253;60292;-73
2024/02/01 03:14:18;;;;;;;;;;;;;;;1.35;100.00;101161.14;108405;1250;60274;-71
2024/02/01 03:16:46;;;;;;;;;;;;;;;1.30;100.00;101160.70;108343;1250;74741;-71
2024/02/01 03:19:14;;;;;;;;;;;;;;;1.23;100.00;101162.42;108405;1250;73042;-72
2024/02/01 03:21:42;;;;;;;;;;;;;;;1.12;100.00;101165.98;108415;1251;72623;-73
2024/02/01 03:24:10;;;;;;;;;;;;;;;1.03;100.00;101163.35;108494;1252;60303;-72
2024/02/01 03:26:40;;;;;;;;;;;;;;;0.97;100.00;101157.38;108341;1250;60674;-72
2024/02/01 03:29:07;;;;;;;;;;;;;;;0.91;100.00;101158.30;108510;1250;71934;-73
2024/02/01 03:31:35;;;;;;;;;;;;;;;0.87;100.00;101163.66;108305;1250;72890;-71
2024/02/01 03:34:05;;;;;;;;;;;;;;;0.85;100.00;101162.36;108380;1250;72909;-72
2024/02/01 03:36:39;;;;;;;;;;;;;;;0.84;100.00;101156.16;108362;1250;60417;-73
2024/02/01 03:39:24;;;;;;;;;;;;;;;0.82;100.00;101156.36;108417;1250;59785;-72
2024/02/01 03:41:52;;;;;;;;;;;;;;;0.81;100.00;101143.81;108344;1250;73883;-71
2024/02/01 03:44:23;;;;;;;;;;;;;;;0.81;100.00;101141.95;108346;1250;71461;-72
2024/02/01 03:46:57;;;;;;;;;;;;;;;0.81;100.00;101138.46;108258;1253;71816;-72
2024/02/01 03:49:25;;;;;;;;;;;;;;;0.82;100.00;101140.23;108337;1252;61475;-73
2024/02/01 03:51:53;;;;;;;;;;;;;;;0.84;100.00;101142.73;108379;1250;60320;-72
2024/02/01 03:54:20;;;;;;;;;;;;;;;0.88;100.00;101137.91;108342;1256;74672;-73
2024/02/01 03:56:51;;;;;;;;;;;;;;;0.92;100.00;101136.59;108370;1256;72734;-73
2024/02/01 03:59:19;;;;;;;;;;;;;;;0.97;100.00;101133.58;108321;1250;72781;-72
2024/02/01 04:01:47;;;;;;;;;;;;;;;1.02;100.00;101128.80;108360;1253;60457;-73
2024/02/01 04:04:17;;;;;;;;;;;;;;;1.08;100.00;101122.55;108415;1250;60182;-72
2024/02/01 04:06:46;;;;;;;;;;;;;;;1.16;100.00;101115.86;108408;1250;72643;-72
2024/02/01 04:09:14;;;;;;;;;;;;;;;1.24;100.00;101116.20;108400;1256;72126;-72
2024/02/01 04:11:42;;;;;;;;;;;;;;;1.29;100.00;101110.88;108333;1251;72741;-72
2024/02/01 04:14:10;;;;;;;;;;;;;;;1.32;100.00;101110.97;108408;1250;60414;-72
2024/02/01 04:16:37;;;;;;;;;;;;;;;1.36;100.00;101105.92;108375;1250;60443;-72
2024/02/01 04:19:05;;;;;;;;;;;;;;;1.40;100.00;101109.01;108354;1250;73846;-72
2024/02/01 04:21:36;;;;;;;;;;;;;;;1.44;100.00;101110.31;108307;1250;71443;-72
2024/02/01 04:24:04;;;;;;;;;;;;;;;1.45;100.00;101109.80;108234;1250;70895;-72
2024/02/01 04:26:32;;;;;;;;;;;;;;;1.48;100.00;101107.71;108368;1250;60450;-72
2024/02/01 04:28:59;;;;;;;;;;;;;;;1.51;100.00;101102.02;108305;1250;60380;-72
2024/02/01 04:31:27;;;;;;;;;;;;;;;1.53;100.00;101101.84;108654;1252;73843;-72
2024/02/01 04:33:57;;;;;;;;;;;;;;;1.56;100.00;101105.00;108389;1250;71301;-71
2024/02/01 04:36:26;;;;;;;;;;;;;;;1.61;100.00;101100.32;108371;1253;72693;-71
2024/02/01 04:38:54;;;;;;;;;;;;;;;1.66;100.00;101097.89;108327;1253;60332;-71
2024/02/01 04:41:22;;;;;;;;;;;;;;;1.71;100.00;101095.36;108366;1250;60727;-71
2024/02/01 04:43:50;;;;;;;;;;;;;;;1.74;100.00;101094.11;108348;1250;76193;-71
2024/02/01 04:46:18;;;;;;;;;;;;;;;1.78;100.00;101093.02;108269;1250;72718;-72
2024/02/01 04:48:46;;;;;;;;;;;;;;;1.83;100.00;101091.94;108321;1250;71371;-72
2024/02/01 04:51:14;;;;;;;;;;;;;;;1.88;100.00;101093.17;108344;1250;60267;-72
2024/02/01 04:53:43;;;;;;;;;;;;;;;1.92;100.00;101087.98;108445;1250;59727;-72
2024/02/01 04:56:11;;;;;;;;;;;;;;;1.94;100.00;101087.92;108417;1251;73764;-72
2024/02/01 04:58:40;;;;;;;;;;;;;;;1.95;100.00;101088.46;108449;1250;72765;-72
2024/02/01 05:01:09;;;;;;;;;;;;;;;1.96;100.00;101080.69;108205;1251;71856;-73
2024/02/01 05:03:38;;;;;;;;;;;;;;;2.03;100.00;101079.25;108496;1251;60891;-71
2024/02/01 05:06:07;;;;;;;;;;;;;;;2.06;100.00;101077.14;108320;1250;60348;-72
2024/02/01 05:08:36;;;;;;;;;;;;;;;2.07;100.00;101075.77;108355;1252;74310;-73
2024/02/01 05:11:04;;;;;;;;;;;;;;;2.05;100.00;101071.45;108377;1250;73688;-72
2024/02/01 05:13:32;;;;;;;;;;;;;;;2.03;100.00;101069.16;108316;1251;71381;-73
2024/02/01 05:16:02;;;;;;;;;;;;;;;2.00;100.00;101065.23;108362;1253;59497;-73
2024/02/01 05:18:29;;;;;;;;;;;;;;;1.99;100.00;101064.54;108294;1251;60434;-73
2024/02/01 05:20:58;;;;;;;;;;;;;;;1.96;100.00;101061.42;108399;1250;72626;-72
2024/02/01 05:23:26;;;;;;;;;;;;;;;1.91;100.00;101064.21;108314;1250;72721;-73
2024/02/01 05:25:55;;;;;;;;;;;;;;;1.87;100.00;101062.08;108427;1251;73444;-74
2024/02/01 05:28:23;;;;;;;;;;;;;;;1.84;100.00;101060.50;108410;1253;60306;-74
2024/02/01 05:30:51;;;;;;;;;;;;;;;1.80;100.00;101061.15;108371;1250;60760;-73
2024/02/01 05:33:19;;;;;;;;;;;;;;;1.77;100.00;101063.54;108407;1250;73795;-72
2024/02/01 05:35:47;;;;;;;;;;;;;;;1.73;100.00;101062.94;108365;1250;71462;-73
2024/02/01 05:38:14;;;;;;;;;;;;;;;1.69;100.00;101059.85;108384;1256;72470;-72
2024/02/01 05:40:42;;;;;;;;;;;;;;;1.66;100.00;101060.98;108341;1250;62067;-73
2024/02/01 05:43:12;;;;;;;;;;;;;;;1.62;100.00;101060.18;108372;1250;60574;-71
2024/02/01 05:45:40;;;;;;;;;;;;;;;1.58;100.00;101059.81;108360;1250;73883;-72
2024/02/01 05:48:11;;;;;;;;;;;;;;;1.55;100.00;101051.43;108396;1250;71368;-71
2024/02/01 05:50:40;;;;;;;;;;;;;;;1.52;100.00;101048.90;108356;1256;72656;-72
2024/02/01 05:53:09;;;;;;;;;;;;;;;1.51;100.00;101047.90;108283;1250;60384;-70
2024/02/01 05:55:37;;;;;;;;;;;;;;;1.49;100.00;101044.24;106564;1250;2375640;-72
2024/02/01 05:58:06;;;;;;;;;;;;;;;1.48;100.00;101043.86;108389;1250;75925;-72
2024/02/01 06:00:37;;;;;;;;;;;;;;;1.40;100.00;101041.05;108344;1251;72122;-72
2024/02/01 06:03:08;;;;;;;;;;;;;;;1.38;100.00;101041.32;108319;1251;72490;-74
2024/02/01 06:05:36;;;;;;;;;;;;;;;1.40;100.00;101042.19;108369;1252;61912;-72
2024/02/01 06:08:04;;;;;;;;;;;;;;;1.43;100.00;101042.88;108293;1251;60252;-72
2024/02/01 06:10:33;;;;;;;;;;;;;;;1.46;100.00;101046.66;108249;1251;74307;-73
2024/02/01 06:13:01;;;;;;;;;;;;;;;1.52;100.00;101038.04;108277;1250;72373;-72
2024/02/01 06:15:28;;;;;;;;;;;;;;;1.60;100.00;101030.23;108243;1251;72687;-73
2024/02/01 06:17:56;;;;;;;;;;;;;;;1.69;100.00;101026.75;108384;1251;60277;-73
2024/02/01 06:20:24;;;;;;;;;;;;;;;1.77;100.00;101021.70;108255;1252;61837;-73
2024/02/01 06:22:52;;;;;;;;;;;;;;;1.87;100.00;101017.45;108243;1250;72710;-73
2024/02/01 06:25:21;;;;;;;;;;;;;;;1.96;100.00;101022.36;108330;1250;71875;-72
2024/02/01 06:27:48;;;;;;;;;;;;;;;2.02;100.00;101022.99;108375;1251;71245;-73
2024/02/01 06:30:16;;;;;;;;;;;;;;;2.09;100.00;101021.06;108380;1250;59879;-72
2024/02/01 06:32:44;;;;;;;;;;;;;;;2.16;100.00;101013.21;108281;1250;60342;-73
2024/02/01 06:35:20;;;;;;;;;;;;;;;2.23;100.00;101011.36;108319;1250;75981;-73
2024/02/01 06:37:57;;;;;;;;;;;;;;;2.30;100.00;101013.17;108304;1251;74849;-73
2024/02/01 06:43:27;;;;;;;;;;;;;;;2.55;100.00;101006.85;108252;1251;60301;-76
2024/02/01 06:46:09;;;;;;;;;;;;;;;2.66;100.00;101005.46;108270;1250;60343;-74
2024/02/01 06:48:46;;;;;;;;;;;;;;;2.65;100.00;101002.93;108370;1250;74145;-73
2024/02/01 06:51:21;;;;;;;;;;;;;;;2.69;100.00;101004.10;108315;1250;74994;-73
2024/02/01 06:53:56;;;;;;;;;;;;;;;2.81;100.00;101001.89;108320;1250;72973;-74
2024/02/01 06:59:43;;;;;;;;;;;;;;;3.03;100.00;100969.20;108333;1250;59903;-73
2024/02/01 07:02:24;;;;;;;;;;;;;;;3.15;100.00;100971.48;108293;1250;72684;-73
2024/02/01 07:04:53;;;;;;;;;;;;;;;3.23;100.00;100975.89;108386;1256;71440;-72
2024/02/01 07:07:26;;;;;;;;;;;;;;;3.25;100.00;100976.98;108278;1253;71460;-72
2024/02/01 07:10:05;;;;;;;;;;;;;;;3.27;100.00;100974.69;108366;1253;59724;-72
2024/02/01 07:12:42;;;;;;;;;;;;;;;3.31;100.00;100971.73;108324;1250;60285;-71
2024/02/01 07:18:14;;;;;;;;;;;;;;;3.41;100.00;100953.80;108440;1250;71588;-72
2024/02/01 07:25:49;;;;;;;;;;;;;;;3.48;100.00;100944.27;108320;1250;61186;-71
2024/02/01 07:58:53;;;;;;;;;;;;;;;3.89;100.00;100923.99;108357;1250;71464;-70
2024/02/01 08:01:24;;;;;;;;;;;;;;;3.94;100.00;100921.02;108408;1250;71046;-71
2024/02/01 08:09:16;;;;;;;;;;;;;;;4.04;100.00;100914.02;108385;1256;72548;-72
2024/02/01 08:11:44;;;;;;;;;;;;;;;4.11;100.00;100903.60;108360;1250;72852;-71
2024/02/01 08:14:13;;;;;;;;;;;;;;;4.19;100.00;100902.00;108258;1250;72957;-71
2024/02/01 08:16:42;;;;;;;;;;;;;;;4.27;100.00;100894.02;108364;1250;60301;-71
2024/02/01 08:19:11;;;;;;;;;;;;;;;4.32;100.00;100895.10;108427;1250;60819;-69
2024/02/01 08:21:53;;;;;;;;;;;;;;;4.34;100.00;100886.92;108306;1251;72541;-71
2024/02/01 08:24:22;;;;;;;;;;;;;;;4.42;100.00;100878.40;108328;1252;73423;-70
2024/02/01 08:26:52;;;;;;;;;;;;;;;4.50;100.00;100875.92;108298;1253;72672;-71
2024/02/01 08:29:27;;;;;;;;;;;;;;;4.47;100.00;100873.27;108313;1251;60953;-71
2024/02/01 08:31:56;;;;;;;;;;;;;;;4.44;100.00;100868.41;108335;1250;61986;-70
2024/02/01 08:34:26;;;;;;;;;;;;;;;4.44;100.00;100861.91;108396;1250;73936;-70
2024/02/01 08:36:54;;;;;;;;;;;;;;;4.52;100.00;100859.68;108313;1250;73198;-70
2024/02/01 08:39:31;;;;;;;;;;;;;;;4.57;100.00;100846.39;108322;1253;73556;-71
2024/02/01 08:42:17;;;;;;;;;;;;;;;4.74;100.00;100853.97;108134;1254;60233;-70
2024/02/01 08:44:54;;;;;;;;;;;;;;;4.86;100.00;100855.50;108572;1251;61106;-70
2024/02/01 08:47:23;;;;;;;;;;;;;;;4.92;100.00;100854.33;108289;1251;73702;-70
2024/02/01 08:49:51;;;;;;;;;;;;;;;5.04;100.00;100851.66;108294;1250;72914;-70
2024/02/01 08:52:19;;;;;;;;;;;;;;;5.13;100.00;100850.91;108378;1250;71334;-70
2024/02/01 08:54:47;;;;;;;;;;;;;;;5.21;100.00;100847.68;108347;1250;61159;-70
2024/02/01 08:57:17;;;;;;;;;;;;;;;5.26;100.00;100843.36;108327;1250;59741;-71
2024/02/01 08:59:45;;;;;;;;;;;;;;;5.31;100.00;100844.84;108364;1250;75980;-70
2024/02/01 09:02:18;;;;;;;;;;;;;;;5.37;100.00;100837.73;108364;1250;71646;-70
2024/02/01 09:04:52;;;;;;;;;;;;;;;5.47;100.00;100831.47;108344;1253;71776;-71
2024/02/01 09:07:21;;;;;;;;;;;;;;;5.54;100.00;100824.34;108266;1253;63059;-70
2024/02/01 09:09:49;;;;;;;;;;;;;;;5.60;100.00;100816.32;108198;1251;59469;-71
2024/02/01 09:12:17;;;;;;;;;;;;;;;5.78;100.00;100811.42;78920;1250;20002729;-71
2024/02/01 09:14:45;;;;;;;;;;;;;;;5.90;100.00;100804.98;108219;1250;60490;-71
2024/02/01 09:17:13;;;;;;;;;;;;;;;6.08;100.00;100795.73;108182;1251;60637;-72
2024/02/01 09:19:41;;;;;;;;;;;;;;;6.17;100.00;100788.17;108146;1250;73991;-72
2024/02/01 09:22:10;;;;;;;;;;;;;;;6.25;99.89;100786.30;108412;1252;72857;-71
2024/02/01 09:24:39;;;;;;;;;;;;;;;6.40;97.14;100776.45;109148;1253;74559;-70
2024/02/01 09:27:06;;;;;;;;;;;;;;;6.46;95.44;100772.58;108546;1251;60355;-72
2024/02/01 09:29:38;;;;;;;;;;;;;;;6.64;93.92;100768.88;108188;1250;59944;-70
2024/02/01 09:32:06;;;;;;;;;;;;;;;6.74;90.16;100765.26;108193;1250;73960;-72
2024/02/01 09:34:34;;;;;;;;;;;;;;;6.69;87.92;100763.53;108145;1253;70980;-73
2024/02/01 09:37:02;;;;;;;;;;;;;;;6.62;87.42;100755.30;108227;1253;71045;-72
2024/02/01 09:39:32;;;;;;;;;;;;;;;6.62;87.23;100750.04;108744;1250;60965;-71
2024/02/01 09:42:11;;;;;;;;;;;;;;;6.68;86.38;100747.33;108233;1250;60276;-71
2024/02/01 09:44:40;;;;;;;;;;;;;;;6.62;85.56;100746.15;108231;1250;72620;-72
2024/02/01 09:47:10;;;;;;;;;;;;;;;6.58;85.17;100739.11;109020;1253;74614;-69
2024/02/01 09:49:39;;;;;;;;;;;;;;;6.57;84.89;100731.32;109106;1251;74930;-72
2024/02/01 09:52:10;;;;;;;;;;;;;;;6.54;84.45;100725.23;108909;1250;60859;-70
2024/02/01 09:54:38;;;;;;;;;;;;;;;6.49;84.69;100722.45;108461;1253;59593;-70
2024/02/01 09:57:14;;;;;;;;;;;;;;;6.43;85.20;100715.95;108119;1250;72640;-71
2024/02/01 09:59:43;;;;;;;;;;;;;;;6.44;85.65;100712.56;108971;1250;72636;-71
2024/02/01 10:02:12;;;;;;;;;;;;;;;6.44;85.41;100703.91;108190;1252;72681;-73
2024/02/01 10:04:40;;;;;;;;;;;;;;;6.42;84.95;100699.93;108165;1253;61270;-71
2024/02/01 10:07:10;;;;;;;;;;;;;;;6.45;84.58;100704.27;108171;1252;60204;-72
2024/02/01 10:09:38;;;;;;;;;;;;;;;6.47;84.12;100708.08;108246;1252;74805;-72
2024/02/01 10:12:06;;;;;;;;;;;;;;;6.45;83.87;100705.64;108161;1253;74091;-70
2024/02/01 10:14:38;;;;;;;;;;;;;;;6.41;84.04;100703.38;108183;1252;72951;-69
2024/02/01 10:17:06;;;;;;;;;;;;;;;6.34;84.47;100694.60;108169;1250;60321;-69
2024/02/01 10:19:36;;;;;;;;;;;;;;;6.41;84.17;100681.13;108145;1256;60396;-73
2024/02/01 10:22:08;;;;;;;;;;;;;;;6.43;83.98;100675.02;108275;1250;74409;-71
2024/02/01 10:24:45;;;;;;;;;;;;;;;6.42;83.80;100670.44;108318;1250;72860;-72
2024/02/01 10:27:13;;;;;;;;;;;;;;;6.45;83.89;100664.67;108245;1250;72954;-71
2024/02/01 10:29:44;;;;;;;;;;;;;;;6.48;83.65;100656.45;108314;1252;59668;-71
2024/02/01 10:32:12;;;;;;;;;;;;;;;6.49;83.64;100655.48;108300;1250;60252;-71
2024/02/01 10:34:43;;;;;;;;;;;;;;;6.51;83.32;100659.06;108345;1250;73521;-71
2024/02/01 10:37:12;;;;;;;;;;;;;;;6.50;82.94;100659.13;108341;1250;73216;-69
2024/02/01 10:39:42;;;;;;;;;;;;;;;6.47;82.84;100658.10;108312;1250;72824;-71
2024/02/01 10:42:11;;;;;;;;;;;;;;;6.46;82.69;100655.79;108716;1256;59667;-71
2024/02/01 10:44:39;;;;;;;;;;;;;;;6.46;82.53;100645.17;108306;1250;60441;-70
2024/02/01 10:47:13;;;;;;;;;;;;;;;6.43;82.41;100636.94;108443;1250;73773;-71
2024/02/01 10:49:43;;;;;;;;;;;;;;;6.44;82.36;100629.41;108250;1250;71574;-71
2024/02/01 10:52:13;;;;;;;;;;;;;;;6.44;81.99;100625.96;108356;1253;73784;-71
2024/02/01 10:54:41;;;;;;;;;;;;;;;6.40;81.59;100622.31;108433;1250;61120;-71
2024/02/01 10:57:10;;;;;;;;;;;;;;;6.39;81.69;100620.91;108316;1250;61834;-73
2024/02/01 10:59:38;;;;;;;;;;;;;;;6.35;81.64;100619.33;108258;1250;72659;-72
2024/02/01 11:02:06;;;;;;;;;;;;;;;6.34;81.85;100611.76;108193;1250;75378;-73
2024/02/01 11:04:35;;;;;;;;;;;;;;;6.34;81.89;100608.86;108399;1250;72361;-71
2024/02/01 11:07:03;;;;;;;;;;;;;;;6.33;82.16;100601.77;108368;1253;61488;-72
2024/02/01 11:09:31;;;;;;;;;;;;;;;6.28;82.57;100597.04;108330;1250;59962;-71
2024/02/01 11:12:04;;;;;;;;;;;;;;;6.24;82.67;100595.67;108365;1250;74705;-70
2024/02/01 11:14:32;;;;;;;;;;;;;;;6.19;83.15;100596.80;108422;1250;72282;-71
2024/02/01 11:17:02;;;;;;;;;;;;;;;6.23;83.14;100585.40;108321;1250;71457;-71
2024/02/01 11:19:31;;;;;;;;;;;;;;;6.16;83.41;100582.41;108295;1251;60302;-71
2024/02/01 11:22:11;;;;;;;;;;;;;;;6.12;83.91;100578.44;108306;1250;60315;-72
2024/02/01 11:24:42;;;;;;;;;;;;;;;6.13;84.07;100572.98;108314;1250;73928;-72
2024/02/01 11:27:19;;;;;;;;;;;;;;;6.20;83.82;100567.13;108326;1250;72166;-75
2024/02/01 11:29:48;;;;;;;;;;;;;;;6.24;83.44;100561.67;108406;1253;72969;-72
2024/02/01 11:32:19;;;;;;;;;;;;;;;6.24;83.22;100552.05;108324;1253;61360;-71
2024/02/01 11:34:52;;;;;;;;;;;;;;;6.23;83.30;100548.36;108321;1251;60787;-72
2024/02/01 11:37:24;;;;;;;;;;;;;;;6.22;83.18;100545.80;108365;1250;74730;-71
2024/02/01 11:39:56;;;;;;;;;;;;;;;6.19;83.60;100537.52;108323;1250;71973;-70
2024/02/01 11:42:24;;;;;;;;;;;;;;;6.24;83.49;100532.21;108401;1251;73674;-70
2024/02/01 11:44:59;;;;;;;;;;;;;;;6.27;83.33;100528.77;108418;1250;60285;-72
2024/02/01 11:47:31;;;;;;;;;;;;;;;6.30;83.10;100521.64;108291;1251;60254;-72
2024/02/01 11:49:59;;;;;;;;;;;;;;;6.32;83.09;100519.15;108398;1250;74087;-70
2024/02/01 11:52:29;;;;;;;;;;;;;;;6.35;83.00;100512.73;108382;1250;72996;-70
2024/02/01 11:54:57;;;;;;;;;;;;;;;6.38;82.82;100505.00;108323;1250;71757;-72
2024/02/01 11:57:25;;;;;;;;;;;;;;;6.40;82.56;100503.93;108369;1253;60309;-71
2024/02/01 11:59:56;;;;;;;;;;;;;;;6.38;82.44;100502.39;108353;1250;60425;-72
2024/02/01 12:02:30;;;;;;;;;;;;;;;6.38;82.49;100493.34;108369;1256;73190;-71
2024/02/01 12:04:59;;;;;;;;;;;;;;;6.40;82.62;100494.58;108584;1256;72843;-72
2024/02/01 12:07:27;;;;;;;;;;;;;;;6.43;82.37;100485.02;108327;1252;71353;-71
2024/02/01 12:09:56;;;;;;;;;;;;;;;6.42;82.11;100484.95;108317;1250;59978;-71
2024/02/01 12:12:23;;;;;;;;;;;;;;;6.45;81.96;100479.23;108338;1250;60216;-70
2024/02/01 12:14:54;;;;;;;;;;;;;;;6.47;82.00;100469.67;108340;1250;75944;-73
2024/02/01 12:17:24;;;;;;;;;;;;;;;6.50;81.97;100462.30;108382;1250;73734;-72
2024/02/01 12:19:52;;;;;;;;;;;;;;;6.53;81.70;100460.67;108350;1251;72839;-73
2024/02/01 12:22:28;;;;;;;;;;;;;;;6.56;81.68;100456.37;108304;1250;61136;-73
2024/02/01 12:24:57;;;;;;;;;;;;;;;6.57;81.55;100457.03;108428;1250;60382;-72
2024/02/01 12:27:25;;;;;;;;;;;;;;;6.61;81.50;100451.59;108392;1250;72769;-73
2024/02/01 12:29:53;;;;;;;;;;;;;;;6.62;81.46;100454.38;108420;1250;72605;-73
2024/02/01 12:32:22;;;;;;;;;;;;;;;6.63;81.50;100447.77;108364;1251;72748;-73
2024/02/01 12:34:49;;;;;;;;;;;;;;;6.62;81.42;100449.48;108361;1250;60408;-72
2024/02/01 12:37:17;;;;;;;;;;;;;;;6.59;81.44;100445.20;108555;1250;60299;-72
2024/02/01 12:39:45;;;;;;;;;;;;;;;6.57;81.62;100444.25;108309;1250;72983;-70
2024/02/01 12:42:15;;;;;;;;;;;;;;;6.55;81.78;100439.85;108368;1250;71595;-70
2024/02/01 12:44:44;;;;;;;;;;;;;;;6.54;82.12;100439.49;108369;1253;72830;-71
2024/02/01 12:47:11;;;;;;;;;;;;;;;6.54;82.39;100434.02;108456;1254;60514;-71
2024/02/01 12:49:39;;;;;;;;;;;;;;;6.53;82.52;100431.36;108352;1250;60344;-72
2024/02/01 12:52:07;;;;;;;;;;;;;;;6.50;82.79;100431.04;108407;1250;74033;-73
2024/02/01 12:54:38;;;;;;;;;;;;;;;6.48;83.21;100426.92;108560;1250;73348;-72
2024/02/01 12:57:08;;;;;;;;;;;;;;;6.47;83.66;100418.36;108390;1253;73299;-73
2024/02/01 12:59:37;;;;;;;;;;;;;;;6.46;84.05;100410.38;108357;1253;60203;-72
2024/02/01 13:02:05;;;;;;;;;;;;;;;6.48;84.41;100404.35;108367;1250;58995;-72
2024/02/01 13:04:33;;;;;;;;;;;;;;;6.47;84.89;100404.92;108408;1251;74115;-71
2024/02/01 13:07:01;;;;;;;;;;;;;;;6.45;85.53;100403.51;108329;1250;74143;-71
2024/02/01 13:09:33;;;;;;;;;;;;;;;6.44;86.03;100402.30;108346;1250;75074;-70
2024/02/01 13:12:18;;;;;;;;;;;;;;;6.42;86.62;100409.23;108304;1256;60978;-70
2024/02/01 13:15:00;;;;;;;;;;;;;;;6.41;87.08;100413.66;108360;1250;62106;-71
2024/02/01 13:17:30;;;;;;;;;;;;;;;6.40;87.53;100416.45;108344;1250;74451;-70
2024/02/01 13:19:59;;;;;;;;;;;;;;;6.40;88.02;100415.27;108403;1250;72478;-71
2024/02/01 13:22:29;;;;;;;;;;;;;;;6.38;88.45;100413.27;108377;1250;72755;-71
2024/02/01 13:24:56;;;;;;;;;;;;;;;6.36;88.84;100418.21;108371;1250;60303;-71
2024/02/01 13:27:25;;;;;;;;;;;;;;;6.33;89.22;100414.59;108304;1250;60342;-71
2024/02/01 13:29:54;;;;;;;;;;;;;;;6.31;89.54;100406.28;108421;1250;74922;-71
2024/02/01 13:32:22;;;;;;;;;;;;;;;6.30;89.96;100406.30;108373;1256;73189;-72